createdAt,value
2022-11-09T00:00:50.756Z,85.07
2022-11-09T00:01:50.754Z,85.07
2022-11-09T00:02:50.711Z,85.07
2022-11-09T00:03:50.718Z,85.07
2022-11-09T00:04:50.694Z,85.07
2022-11-09T00:05:50.735Z,85.07
2022-11-09T00:06:50.700Z,85.07
2022-11-09T00:07:50.918Z,84.97
2022-11-09T00:08:50.631Z,85.17
2022-11-09T00:09:50.671Z,85.07
2022-11-09T00:10:50.621Z,84.97
2022-11-09T00:11:50.600Z,84.87
2022-11-09T00:12:50.595Z,84.87
2022-11-09T00:13:50.561Z,84.77
2022-11-09T00:14:50.552Z,84.77
2022-11-09T00:15:50.605Z,84.87
2022-11-09T00:16:50.818Z,85.07
2022-11-09T00:17:50.510Z,85.07
2022-11-09T00:18:50.519Z,85.27
2022-11-09T00:19:50.521Z,85.17
2022-11-09T00:20:50.503Z,85.17
2022-11-09T00:21:50.475Z,85.07
2022-11-09T00:22:50.454Z,84.97
2022-11-09T00:23:50.559Z,85.07
2022-11-09T00:24:50.421Z,84.87
2022-11-09T00:25:50.554Z,84.97
2022-11-09T00:26:50.399Z,84.87
2022-11-09T00:27:50.411Z,84.97
2022-11-09T00:28:50.392Z,84.97
2022-11-09T00:29:50.372Z,84.97
2022-11-09T00:30:50.350Z,85.07
2022-11-09T00:31:50.346Z,85.17
2022-11-09T00:32:50.325Z,85.17
2022-11-09T00:33:50.328Z,85.17
2022-11-09T00:34:50.297Z,85.17
2022-11-09T00:35:50.287Z,85.17
2022-11-09T00:36:50.288Z,85.27
2022-11-09T00:37:50.269Z,85.27
2022-11-09T00:38:50.264Z,85.38
2022-11-09T00:39:50.230Z,85.47
2022-11-09T00:40:50.233Z,85.58
2022-11-09T00:41:50.225Z,85.47
2022-11-09T00:42:50.215Z,85.47
2022-11-09T00:43:50.176Z,85.68
2022-11-09T00:44:50.302Z,85.78
2022-11-09T00:45:50.157Z,85.78
2022-11-09T00:46:50.151Z,85.68
2022-11-09T00:47:50.142Z,85.68
2022-11-09T00:48:50.124Z,85.78
2022-11-09T00:49:50.104Z,86.02
2022-11-09T00:50:50.111Z,85.82
2022-11-09T00:51:50.108Z,85.82
2022-11-09T00:52:50.069Z,85.92
2022-11-09T00:53:50.050Z,86.02
2022-11-09T00:54:50.040Z,86.02
2022-11-09T00:55:50.039Z,86.13
2022-11-09T00:56:50.008Z,86.02
2022-11-09T00:57:50.009Z,86.02
2022-11-09T00:58:50.104Z,86.13
2022-11-09T00:59:50.014Z,86.22
2022-11-09T01:00:50.062Z,86.43
2022-11-09T01:01:49.946Z,86.43
2022-11-09T01:02:49.946Z,86.43
2022-11-09T01:03:49.939Z,86.43
2022-11-09T01:04:49.901Z,86.43
2022-11-09T01:05:49.906Z,86.43
2022-11-09T01:06:49.908Z,86.53
2022-11-09T01:07:49.868Z,86.53
2022-11-09T01:08:49.876Z,86.53
2022-11-09T01:09:49.856Z,86.53
2022-11-09T01:10:49.884Z,86.63
2022-11-09T01:11:49.883Z,86.77
2022-11-09T01:12:49.842Z,86.77
2022-11-09T01:13:49.783Z,86.88
2022-11-09T01:14:49.791Z,86.88
2022-11-09T01:15:49.775Z,86.77
2022-11-09T01:16:55.417Z,86.77
2022-11-09T01:17:53.122Z,86.68
2022-11-09T01:18:51.023Z,86.57
2022-11-09T01:19:49.705Z,86.47
2022-11-09T01:20:49.705Z,86.37
2022-11-09T01:21:49.684Z,86.37
2022-11-09T01:22:49.694Z,86.37
2022-11-09T01:23:49.676Z,86.37
2022-11-09T01:24:49.644Z,86.37
2022-11-09T01:25:49.682Z,86.47
2022-11-09T01:26:49.646Z,86.37
2022-11-09T01:27:49.645Z,86.37
2022-11-09T01:28:49.602Z,86.27
2022-11-09T01:29:49.574Z,86.27
2022-11-09T01:30:49.587Z,86.16
2022-11-09T01:31:49.587Z,86.16
2022-11-09T01:32:49.557Z,86.16
2022-11-09T01:33:49.557Z,86.07
2022-11-09T01:34:49.536Z,85.96
2022-11-09T01:35:49.503Z,86.16
2022-11-09T01:36:49.515Z,85.96
2022-11-09T01:37:49.504Z,85.86
2022-11-09T01:38:49.475Z,85.86
2022-11-09T01:39:49.446Z,85.76
2022-11-09T01:40:49.458Z,85.86
2022-11-09T01:41:49.442Z,85.76
2022-11-09T01:42:49.418Z,85.76
2022-11-09T01:43:49.400Z,85.76
2022-11-09T01:44:49.416Z,85.55
2022-11-09T01:45:49.384Z,85.66
2022-11-09T01:46:49.417Z,85.66
2022-11-09T01:47:56.916Z,85.66
2022-11-09T01:48:49.322Z,85.86
2022-11-09T01:49:49.331Z,85.76
2022-11-09T01:50:49.322Z,85.96
2022-11-09T01:51:49.321Z,85.96
2022-11-09T01:52:49.302Z,85.96
2022-11-09T01:53:49.280Z,85.86
2022-11-09T01:54:49.242Z,85.66
2022-11-09T01:55:49.270Z,85.66
2022-11-09T01:56:49.241Z,85.46
2022-11-09T01:57:49.232Z,85.15
2022-11-09T01:58:49.216Z,84.84
2022-11-09T01:59:49.189Z,84.80
2022-11-09T02:00:49.296Z,84.80
2022-11-09T02:01:49.272Z,84.91
2022-11-09T02:02:49.166Z,84.91
2022-11-09T02:03:49.155Z,84.70
2022-11-09T02:04:49.128Z,84.70
2022-11-09T02:05:49.123Z,84.70
2022-11-09T02:06:49.165Z,84.50
2022-11-09T02:07:49.092Z,84.50
2022-11-09T02:08:49.082Z,84.50
2022-11-09T02:09:49.060Z,84.60
2022-11-09T02:10:49.056Z,84.60
2022-11-09T02:11:49.052Z,84.70
2022-11-09T02:12:49.021Z,84.60
2022-11-09T02:13:49.032Z,84.70
2022-11-09T02:14:49.002Z,84.80
2022-11-09T02:15:49.002Z,84.80
2022-11-09T02:16:49.011Z,85.05
2022-11-09T02:17:48.991Z,85.15
2022-11-09T02:18:48.971Z,85.15
2022-11-09T02:19:48.959Z,85.15
2022-11-09T02:20:48.931Z,85.05
2022-11-09T02:21:48.950Z,84.84
2022-11-09T02:22:48.911Z,84.84
2022-11-09T02:23:48.910Z,84.95
2022-11-09T02:24:51.788Z,84.74
2022-11-09T02:25:49.860Z,84.64
2022-11-09T02:26:48.855Z,84.60
2022-11-09T02:27:48.849Z,84.64
2022-11-09T02:28:48.818Z,84.54
2022-11-09T02:29:48.811Z,84.50
2022-11-09T02:30:48.776Z,84.64
2022-11-09T02:31:48.783Z,84.64
2022-11-09T02:32:48.786Z,84.60
2022-11-09T02:33:48.761Z,84.30
2022-11-09T02:34:48.728Z,84.40
2022-11-09T02:35:48.751Z,84.40
2022-11-09T02:36:48.705Z,84.50
2022-11-09T02:37:48.730Z,84.30
2022-11-09T02:38:48.699Z,84.30
2022-11-09T02:39:48.684Z,84.30
2022-11-09T02:40:48.668Z,84.30
2022-11-09T02:41:48.670Z,84.30
2022-11-09T02:42:48.679Z,84.50
2022-11-09T02:43:48.616Z,84.34
2022-11-09T02:44:48.593Z,84.40
2022-11-09T02:45:48.603Z,84.50
2022-11-09T02:46:48.593Z,84.54
2022-11-09T02:47:48.627Z,84.74
2022-11-09T02:48:48.579Z,84.74
2022-11-09T02:49:48.552Z,84.74
2022-11-09T02:50:48.538Z,84.74
2022-11-09T02:51:48.524Z,84.74
2022-11-09T02:52:48.504Z,84.84
2022-11-09T02:53:48.483Z,84.95
2022-11-09T02:54:48.465Z,85.05
2022-11-09T02:55:48.477Z,85.05
2022-11-09T02:56:48.442Z,85.15
2022-11-09T02:57:48.453Z,85.15
2022-11-09T02:58:48.422Z,85.25
2022-11-09T02:59:48.402Z,85.25
2022-11-09T03:00:48.436Z,85.25
2022-11-09T03:01:48.406Z,85.25
2022-11-09T03:02:48.394Z,85.35
2022-11-09T03:03:48.385Z,85.46
2022-11-09T03:04:48.367Z,85.55
2022-11-09T03:05:48.342Z,85.66
2022-11-09T03:06:48.360Z,85.55
2022-11-09T03:07:48.345Z,85.55
2022-11-09T03:08:48.318Z,85.60
2022-11-09T03:09:48.305Z,85.55
2022-11-09T03:10:48.283Z,85.66
2022-11-09T03:11:48.274Z,85.55
2022-11-09T03:12:48.255Z,85.55
2022-11-09T03:13:48.257Z,85.55
2022-11-09T03:14:48.227Z,85.66
2022-11-09T03:15:48.197Z,85.76
2022-11-09T03:16:50.690Z,85.76
2022-11-09T03:17:48.215Z,85.76
2022-11-09T03:18:48.177Z,85.66
2022-11-09T03:19:48.158Z,85.66
2022-11-09T03:20:48.143Z,85.66
2022-11-09T03:21:48.143Z,85.66
2022-11-09T03:22:48.120Z,85.76
2022-11-09T03:23:48.090Z,85.76
2022-11-09T03:24:48.104Z,85.76
2022-11-09T03:25:48.069Z,85.86
2022-11-09T03:26:48.081Z,85.66
2022-11-09T03:27:48.075Z,85.55
2022-11-09T03:28:48.037Z,85.55
2022-11-09T03:29:48.018Z,85.55
2022-11-09T03:30:47.999Z,85.46
2022-11-09T03:31:48.014Z,85.55
2022-11-09T03:32:50.610Z,85.55
2022-11-09T03:33:47.970Z,85.66
2022-11-09T03:34:47.987Z,85.66
2022-11-09T03:35:47.959Z,85.55
2022-11-09T03:36:47.956Z,85.46
2022-11-09T03:37:47.996Z,85.35
2022-11-09T03:38:47.914Z,85.35
2022-11-09T03:39:47.996Z,85.11
2022-11-09T03:40:47.884Z,85.31
2022-11-09T03:41:47.880Z,85.31
2022-11-09T03:42:47.883Z,85.41
2022-11-09T03:43:47.835Z,85.31
2022-11-09T03:44:47.819Z,85.21
2022-11-09T03:45:47.812Z,85.21
2022-11-09T03:46:47.799Z,85.21
2022-11-09T03:47:47.798Z,85.11
2022-11-09T03:48:47.798Z,85.11
2022-11-09T03:49:47.781Z,85.11
2022-11-09T03:50:47.750Z,85.21
2022-11-09T03:51:47.762Z,84.91
2022-11-09T03:52:47.726Z,84.91
2022-11-09T03:53:47.717Z,84.91
2022-11-09T03:54:47.694Z,85.01
2022-11-09T03:55:47.699Z,84.91
2022-11-09T03:56:47.699Z,84.80
2022-11-09T03:57:47.647Z,84.70
2022-11-09T03:58:47.646Z,84.70
2022-11-09T03:59:47.661Z,85.11
2022-11-09T04:00:47.628Z,85.01
2022-11-09T04:01:47.837Z,85.01
2022-11-09T04:02:47.587Z,85.21
2022-11-09T04:03:47.621Z,84.91
2022-11-09T04:04:47.577Z,85.11
2022-11-09T04:05:47.559Z,85.11
2022-11-09T04:06:47.606Z,85.11
2022-11-09T04:07:47.545Z,85.21
2022-11-09T04:08:51.341Z,85.31
2022-11-09T04:09:47.508Z,85.11
2022-11-09T04:10:47.486Z,85.01
2022-11-09T04:11:47.474Z,85.01
2022-11-09T04:12:47.455Z,85.01
2022-11-09T04:13:47.486Z,85.11
2022-11-09T04:14:47.468Z,85.11
2022-11-09T04:15:47.435Z,85.11
2022-11-09T04:16:47.404Z,85.21
2022-11-09T04:17:47.417Z,85.21
2022-11-09T04:18:47.394Z,85.21
2022-11-09T04:19:47.375Z,85.31
2022-11-09T04:20:47.369Z,85.52
2022-11-09T04:21:47.341Z,85.52
2022-11-09T04:22:47.356Z,85.52
2022-11-09T04:23:47.338Z,85.52
2022-11-09T04:24:47.314Z,85.62
2022-11-09T04:25:47.301Z,85.82
2022-11-09T04:26:47.314Z,85.72
2022-11-09T04:27:47.275Z,85.72
2022-11-09T04:28:47.276Z,85.72
2022-11-09T04:29:47.258Z,85.72
2022-11-09T04:30:47.240Z,85.82
2022-11-09T04:31:47.236Z,85.82
2022-11-09T04:32:47.213Z,85.82
2022-11-09T04:33:47.193Z,85.92
2022-11-09T04:34:47.186Z,85.92
2022-11-09T04:35:47.162Z,85.92
2022-11-09T04:36:47.175Z,86.02
2022-11-09T04:37:47.148Z,86.13
2022-11-09T04:38:47.141Z,86.13
2022-11-09T04:39:47.115Z,86.22
2022-11-09T04:40:47.131Z,86.13
2022-11-09T04:41:47.085Z,86.22
2022-11-09T04:42:47.076Z,86.33
2022-11-09T04:43:47.091Z,86.33
2022-11-09T04:44:47.058Z,86.33
2022-11-09T04:45:47.032Z,85.92
2022-11-09T04:46:47.023Z,86.22
2022-11-09T04:47:47.025Z,86.13
2022-11-09T04:48:47.035Z,86.13
2022-11-09T04:49:47.007Z,86.02
2022-11-09T04:50:46.962Z,86.02
2022-11-09T04:51:46.962Z,86.02
2022-11-09T04:52:46.944Z,85.92
2022-11-09T04:53:46.941Z,85.82
2022-11-09T04:54:46.920Z,85.92
2022-11-09T04:55:46.946Z,85.92
2022-11-09T04:56:46.890Z,86.22
2022-11-09T04:57:46.885Z,86.02
2022-11-09T04:58:46.894Z,86.33
2022-11-09T04:59:46.866Z,86.43
2022-11-09T05:00:46.853Z,86.33
2022-11-09T05:01:46.843Z,86.22
2022-11-09T05:02:46.823Z,86.33
2022-11-09T05:03:46.935Z,86.53
2022-11-09T05:04:46.808Z,86.43
2022-11-09T05:05:48.587Z,86.33
2022-11-09T05:06:46.870Z,86.22
2022-11-09T05:07:46.742Z,86.33
2022-11-09T05:08:46.779Z,86.43
2022-11-09T05:09:46.725Z,86.33
2022-11-09T05:10:46.733Z,86.63
2022-11-09T05:11:46.696Z,86.94
2022-11-09T05:12:46.679Z,87.55
2022-11-09T05:13:46.713Z,87.95
2022-11-09T05:14:46.680Z,88.56
2022-11-09T05:15:46.661Z,89.07
2022-11-09T05:16:46.628Z,89.37
2022-11-09T05:17:46.640Z,89.52
2022-11-09T05:18:46.630Z,89.31
2022-11-09T05:19:46.588Z,89.31
2022-11-09T05:20:46.603Z,89.52
2022-11-09T05:21:46.569Z,89.62
2022-11-09T05:22:46.566Z,89.72
2022-11-09T05:23:46.563Z,89.62
2022-11-09T05:24:46.540Z,89.72
2022-11-09T05:25:46.521Z,89.83
2022-11-09T05:26:46.534Z,90.13
2022-11-09T05:27:46.502Z,90.84
2022-11-09T05:28:46.500Z,90.94
2022-11-09T05:29:46.478Z,91.05
2022-11-09T05:30:46.448Z,91.05
2022-11-09T05:31:51.848Z,91.14
2022-11-09T05:32:47.429Z,91.45
2022-11-09T05:33:46.439Z,91.75
2022-11-09T05:34:46.405Z,91.86
2022-11-09T05:35:46.401Z,92.10
2022-11-09T05:36:46.387Z,92.51
2022-11-09T05:37:46.353Z,92.61
2022-11-09T05:38:46.345Z,92.61
2022-11-09T05:39:46.377Z,92.51
2022-11-09T05:40:46.330Z,92.51
2022-11-09T05:41:46.313Z,92.41
2022-11-09T05:42:46.323Z,92.41
2022-11-09T05:43:46.290Z,92.51
2022-11-09T05:44:46.312Z,92.51
2022-11-09T05:45:46.265Z,92.51
2022-11-09T05:46:46.253Z,92.41
2022-11-09T05:47:46.253Z,92.30
2022-11-09T05:48:46.216Z,92.30
2022-11-09T05:49:46.243Z,92.41
2022-11-09T05:50:46.193Z,92.61
2022-11-09T05:51:46.178Z,92.91
2022-11-09T05:52:46.173Z,93.02
2022-11-09T05:53:47.139Z,93.02
2022-11-09T05:54:46.144Z,93.12
2022-11-09T05:55:46.122Z,93.22
2022-11-09T05:56:46.146Z,93.12
2022-11-09T05:57:46.093Z,93.12
2022-11-09T05:58:46.118Z,93.12
2022-11-09T05:59:46.097Z,92.91
2022-11-09T06:00:46.055Z,93.02
2022-11-09T06:01:46.130Z,93.12
2022-11-09T06:02:46.051Z,93.57
2022-11-09T06:03:46.039Z,94.08
2022-11-09T06:04:46.024Z,94.38
2022-11-09T06:05:46.003Z,94.69
2022-11-09T06:06:46.020Z,95.00
2022-11-09T06:07:45.976Z,95.24
2022-11-09T06:08:45.963Z,95.54
2022-11-09T06:09:45.966Z,96.06
2022-11-09T06:10:45.932Z,96.46
2022-11-09T06:11:45.912Z,96.87
2022-11-09T06:12:45.915Z,97.42
2022-11-09T06:13:45.933Z,97.73
2022-11-09T06:14:45.900Z,98.14
2022-11-09T06:15:45.886Z,98.34
2022-11-09T06:16:45.878Z,98.54
2022-11-09T06:17:45.856Z,98.85
2022-11-09T06:18:45.852Z,99.05
2022-11-09T06:19:45.824Z,99.26
2022-11-09T06:20:45.828Z,99.46
2022-11-09T06:21:45.812Z,99.56
2022-11-09T06:22:45.804Z,99.77
2022-11-09T06:23:45.773Z,99.87
2022-11-09T06:24:45.774Z,99.97
2022-11-09T06:25:45.746Z,99.99
2022-11-09T06:26:45.731Z,99.99
2022-11-09T06:27:45.715Z,99.99
2022-11-09T06:28:45.725Z,99.99
2022-11-09T06:29:45.942Z,99.99
2022-11-09T06:30:45.668Z,99.99
2022-11-09T06:31:45.685Z,99.99
2022-11-09T06:32:45.655Z,99.99
2022-11-09T06:33:45.640Z,99.99
2022-11-09T06:34:45.624Z,99.99
2022-11-09T06:35:45.664Z,99.99
2022-11-09T06:36:45.600Z,99.99
2022-11-09T06:37:45.577Z,99.99
2022-11-09T06:38:45.570Z,99.99
2022-11-09T06:39:45.579Z,99.99
2022-11-09T06:40:45.552Z,99.99
2022-11-09T06:41:47.575Z,99.99
2022-11-09T06:42:45.604Z,99.99
2022-11-09T06:43:45.519Z,99.99
2022-11-09T06:44:45.501Z,99.99
2022-11-09T06:45:45.491Z,99.99
2022-11-09T06:46:45.459Z,99.99
2022-11-09T06:47:45.495Z,99.99
2022-11-09T06:48:48.316Z,99.99
2022-11-09T06:49:46.442Z,99.99
2022-11-09T06:50:45.408Z,99.99
2022-11-09T06:51:45.427Z,99.99
2022-11-09T06:52:45.411Z,99.99
2022-11-09T06:53:45.411Z,99.99
2022-11-09T06:54:45.401Z,99.99
2022-11-09T06:55:50.238Z,99.99
2022-11-09T06:56:46.362Z,99.99
2022-11-09T06:57:45.320Z,99.99
2022-11-09T06:58:45.382Z,99.91
2022-11-09T06:59:45.312Z,99.91
2022-11-09T07:00:45.309Z,99.91
2022-11-09T07:01:45.336Z,99.91
2022-11-09T07:02:45.259Z,99.91
2022-11-09T07:03:45.257Z,99.91
2022-11-09T07:04:45.237Z,99.99
2022-11-09T07:05:45.239Z,99.99
2022-11-09T07:06:45.488Z,99.99
2022-11-09T07:07:45.205Z,99.99
2022-11-09T07:08:45.197Z,99.99
2022-11-09T07:09:45.200Z,99.99
2022-11-09T07:10:45.157Z,99.99
2022-11-09T07:11:45.149Z,99.99
2022-11-09T07:12:45.125Z,99.99
2022-11-09T07:13:46.688Z,99.99
2022-11-09T07:14:45.140Z,99.99
2022-11-09T07:15:45.084Z,99.99
2022-11-09T07:16:45.092Z,99.99
2022-11-09T07:17:45.086Z,99.99
2022-11-09T07:18:45.067Z,99.99
2022-11-09T07:19:45.053Z,99.99
2022-11-09T07:20:45.043Z,99.99
2022-11-09T07:21:45.019Z,99.99
2022-11-09T07:22:45.020Z,99.99
2022-11-09T07:23:44.976Z,99.99
2022-11-09T07:24:44.985Z,99.99
2022-11-09T07:25:44.970Z,99.99
2022-11-09T07:26:44.942Z,99.99
2022-11-09T07:27:44.937Z,99.99
2022-11-09T07:28:44.924Z,99.99
2022-11-09T07:29:44.938Z,99.99
2022-11-09T07:30:44.894Z,99.99
2022-11-09T07:31:44.898Z,99.99
2022-11-09T07:33:45.856Z,99.99
2022-11-09T07:34:44.855Z,99.99
2022-11-09T07:35:44.834Z,99.99
2022-11-09T07:36:44.834Z,99.99
2022-11-09T07:37:44.817Z,99.99
2022-11-09T07:38:44.806Z,99.99
2022-11-09T07:39:44.808Z,99.99
2022-11-09T07:40:44.784Z,99.99
2022-11-09T07:41:44.773Z,99.99
2022-11-09T07:42:44.742Z,99.99
2022-11-09T07:43:44.732Z,99.99
2022-11-09T07:44:44.740Z,99.99
2022-11-09T07:45:44.692Z,99.99
2022-11-09T07:46:44.698Z,99.99
2022-11-09T07:47:44.716Z,99.99
2022-11-09T07:48:52.492Z,99.99
2022-11-09T07:49:44.660Z,99.99
2022-11-09T07:50:44.660Z,99.99
2022-11-09T07:51:44.625Z,99.99
2022-11-09T07:52:44.619Z,99.99
2022-11-09T07:53:44.619Z,99.99
2022-11-09T07:54:48.247Z,99.99
2022-11-09T07:55:45.602Z,99.99
2022-11-09T07:56:44.580Z,99.99
2022-11-09T07:57:44.572Z,99.99
2022-11-09T07:58:44.547Z,99.99
2022-11-09T07:59:44.543Z,99.99
2022-11-09T08:00:44.550Z,99.99
2022-11-09T08:01:44.527Z,99.99
2022-11-09T08:02:44.506Z,99.99
2022-11-09T08:03:44.483Z,99.99
2022-11-09T08:04:44.455Z,99.99
2022-11-09T08:05:44.465Z,99.99
2022-11-09T08:06:44.512Z,99.99
2022-11-09T08:07:44.430Z,99.99
2022-11-09T08:08:44.413Z,99.99
2022-11-09T08:09:44.398Z,99.99
2022-11-09T08:10:48.263Z,99.99
2022-11-09T08:11:44.378Z,99.91
2022-11-09T08:12:44.385Z,99.91
2022-11-09T08:13:44.342Z,99.81
2022-11-09T08:14:44.356Z,99.91
2022-11-09T08:15:44.340Z,99.81
2022-11-09T08:16:44.315Z,99.81
2022-11-09T08:17:44.316Z,99.71
2022-11-09T08:18:44.304Z,99.71
2022-11-09T08:19:44.274Z,99.71
2022-11-09T08:20:44.262Z,99.71
2022-11-09T08:21:44.233Z,99.61
2022-11-09T08:22:44.249Z,99.61
2022-11-09T08:23:44.231Z,99.61
2022-11-09T08:24:44.222Z,99.66
2022-11-09T08:25:44.223Z,99.56
2022-11-09T08:26:44.182Z,99.66
2022-11-09T08:27:44.173Z,99.66
2022-11-09T08:28:44.188Z,99.56
2022-11-09T08:29:44.143Z,99.56
2022-11-09T08:30:44.164Z,99.56
2022-11-09T08:31:44.122Z,99.66
2022-11-09T08:32:44.112Z,99.56
2022-11-09T08:33:44.114Z,99.66
2022-11-09T08:34:44.090Z,99.66
2022-11-09T08:35:46.916Z,99.56
2022-11-09T08:36:45.046Z,99.56
2022-11-09T08:37:44.042Z,99.52
2022-11-09T08:38:44.052Z,99.52
2022-11-09T08:39:44.008Z,99.41
2022-11-09T08:40:44.037Z,99.31
2022-11-09T08:41:43.982Z,99.31
2022-11-09T08:42:43.992Z,99.21
2022-11-09T08:43:43.952Z,99.11
2022-11-09T08:44:43.960Z,99.11
2022-11-09T08:45:43.948Z,99.01
2022-11-09T08:46:43.938Z,99.01
2022-11-09T08:47:43.919Z,99.01
2022-11-09T08:48:43.908Z,99.01
2022-11-09T08:49:43.887Z,99.01
2022-11-09T08:50:43.889Z,98.91
2022-11-09T08:51:43.848Z,98.91
2022-11-09T08:52:43.860Z,98.70
2022-11-09T08:53:43.848Z,98.66
2022-11-09T08:54:43.810Z,98.66
2022-11-09T08:55:48.388Z,98.55
2022-11-09T08:56:44.803Z,98.55
2022-11-09T08:57:43.776Z,98.55
2022-11-09T08:58:43.780Z,98.55
2022-11-09T08:59:43.767Z,98.66
2022-11-09T09:00:43.767Z,98.35
2022-11-09T09:01:44.686Z,98.25
2022-11-09T09:02:43.732Z,98.14
2022-11-09T09:03:43.722Z,98.14
2022-11-09T09:04:43.687Z,98.05
2022-11-09T09:05:43.686Z,98.05
2022-11-09T09:06:43.899Z,98.05
2022-11-09T09:07:43.665Z,98.10
2022-11-09T09:08:45.541Z,97.80
2022-11-09T09:09:43.637Z,97.60
2022-11-09T09:10:43.641Z,97.49
2022-11-09T09:11:43.594Z,97.60
2022-11-09T09:12:43.617Z,97.60
2022-11-09T09:13:43.917Z,97.49
2022-11-09T09:14:43.568Z,97.39
2022-11-09T09:15:43.545Z,97.39
2022-11-09T09:16:43.531Z,97.29
2022-11-09T09:17:43.571Z,97.08
2022-11-09T09:18:43.506Z,96.98
2022-11-09T09:19:48.772Z,96.88
2022-11-09T09:20:44.493Z,96.78
2022-11-09T09:21:43.486Z,96.58
2022-11-09T09:22:43.480Z,96.47
2022-11-09T09:23:43.457Z,95.76
2022-11-09T09:24:43.438Z,94.64
2022-11-09T09:25:43.414Z,94.13
2022-11-09T09:26:43.416Z,94.13
2022-11-09T09:27:43.429Z,94.13
2022-11-09T09:28:43.401Z,94.09
2022-11-09T09:29:43.386Z,94.09
2022-11-09T09:30:43.364Z,93.99
2022-11-09T09:31:43.358Z,94.09
2022-11-09T09:32:43.323Z,94.20
2022-11-09T09:33:43.349Z,94.20
2022-11-09T09:34:43.302Z,93.89
2022-11-09T09:35:43.281Z,93.99
2022-11-09T09:36:47.717Z,93.89
2022-11-09T09:37:44.278Z,93.59
2022-11-09T09:38:43.251Z,93.48
2022-11-09T09:39:43.269Z,93.28
2022-11-09T09:40:43.246Z,91.96
2022-11-09T09:41:43.229Z,91.75
2022-11-09T09:42:43.220Z,91.96
2022-11-09T09:43:43.942Z,91.14
2022-11-09T09:44:43.198Z,90.64
2022-11-09T09:45:43.172Z,90.23
2022-11-09T09:46:43.177Z,89.72
2022-11-09T09:47:43.157Z,89.31
2022-11-09T09:48:43.133Z,89.42
2022-11-09T09:49:43.161Z,88.81
2022-11-09T09:50:43.127Z,88.50
2022-11-09T09:51:43.102Z,87.79
2022-11-09T09:52:50.661Z,87.69
2022-11-09T09:53:44.060Z,88.10
2022-11-09T09:54:43.045Z,88.20
2022-11-09T09:55:43.063Z,88.60
2022-11-09T09:56:43.013Z,87.49
2022-11-09T09:57:43.025Z,87.49
2022-11-09T09:58:43.007Z,87.49
2022-11-09T09:59:43.017Z,87.08
2022-11-09T10:00:42.990Z,86.98
2022-11-09T10:01:42.958Z,87.29
2022-11-09T10:02:42.986Z,85.86
2022-11-09T10:03:42.927Z,85.46
2022-11-09T10:04:42.964Z,86.68
2022-11-09T10:05:42.928Z,87.08
2022-11-09T10:06:42.963Z,86.68
2022-11-09T10:07:42.892Z,85.66
2022-11-09T10:08:42.858Z,85.76
2022-11-09T10:09:42.866Z,84.54
2022-11-09T10:10:42.852Z,84.34
2022-11-09T10:11:42.851Z,84.84
2022-11-09T10:12:42.846Z,84.74
2022-11-09T10:13:42.831Z,84.84
2022-11-09T10:14:42.793Z,85.05
2022-11-09T10:15:43.531Z,84.64
2022-11-09T10:16:42.774Z,83.93
2022-11-09T10:17:42.747Z,84.84
2022-11-09T10:18:42.835Z,84.09
2022-11-09T10:19:42.801Z,84.20
2022-11-09T10:20:42.706Z,84.30
2022-11-09T10:21:42.736Z,85.11
2022-11-09T10:22:42.690Z,84.60
2022-11-09T10:23:42.711Z,83.99
2022-11-09T10:24:58.662Z,84.60
2022-11-09T10:26:03.189Z,82.98
2022-11-09T10:26:43.712Z,81.66
2022-11-09T10:27:42.640Z,81.86
2022-11-09T10:29:09.669Z,81.86
2022-11-09T10:29:43.631Z,81.76
2022-11-09T10:30:42.887Z,81.96
2022-11-09T10:31:42.581Z,81.52
2022-11-09T10:32:42.612Z,82.33
2022-11-09T10:33:42.590Z,82.64
2022-11-09T10:34:42.535Z,82.94
2022-11-09T10:35:42.549Z,82.23
2022-11-09T10:36:42.822Z,82.73
2022-11-09T10:37:42.515Z,83.04
2022-11-09T10:38:42.485Z,83.45
2022-11-09T10:39:42.483Z,82.33
2022-11-09T10:40:42.469Z,83.65
2022-11-09T10:41:42.471Z,83.45
2022-11-09T10:42:42.467Z,83.24
2022-11-09T10:43:42.431Z,83.14
2022-11-09T10:44:42.410Z,83.04
2022-11-09T10:45:42.414Z,81.82
2022-11-09T10:46:42.436Z,82.64
2022-11-09T10:47:42.382Z,82.84
2022-11-09T10:48:42.403Z,82.73
2022-11-09T10:49:42.348Z,82.03
2022-11-09T10:50:42.336Z,81.52
2022-11-09T10:51:42.319Z,80.50
2022-11-09T10:52:47.280Z,79.90
2022-11-09T10:53:43.342Z,79.99
2022-11-09T10:54:42.308Z,80.91
2022-11-09T10:55:42.262Z,80.50
2022-11-09T10:57:05.069Z,79.90
2022-11-09T10:57:43.463Z,80.97
2022-11-09T10:58:42.276Z,81.48
2022-11-09T10:59:42.475Z,80.46
2022-11-09T11:00:42.207Z,81.58
2022-11-09T11:01:42.286Z,81.58
2022-11-09T11:02:42.200Z,81.68
2022-11-09T11:03:42.293Z,81.48
2022-11-09T11:04:42.175Z,80.60
2022-11-09T11:05:42.133Z,80.19
2022-11-09T11:06:42.187Z,78.88
2022-11-09T11:07:42.150Z,79.35
2022-11-09T11:08:42.107Z,78.23
2022-11-09T11:09:42.092Z,77.93
2022-11-09T11:10:42.076Z,79.14
2022-11-09T11:11:42.055Z,79.96
2022-11-09T11:12:42.042Z,79.65
2022-11-09T11:13:42.051Z,79.35
2022-11-09T11:14:42.022Z,79.45
2022-11-09T11:15:42.036Z,79.45
2022-11-09T11:16:42.006Z,80.16
2022-11-09T11:17:42.007Z,78.84
2022-11-09T11:18:41.952Z,77.42
2022-11-09T11:19:41.974Z,77.28
2022-11-09T11:20:41.949Z,76.78
2022-11-09T11:21:41.945Z,75.66
2022-11-09T11:22:41.902Z,76.17
2022-11-09T11:23:41.912Z,76.98
2022-11-09T11:24:41.892Z,77.18
2022-11-09T11:25:41.894Z,76.98
2022-11-09T11:26:41.900Z,76.27
2022-11-09T11:27:41.859Z,75.15
2022-11-09T11:28:41.844Z,76.78
2022-11-09T11:29:41.833Z,77.28
2022-11-09T11:30:41.846Z,76.98
2022-11-09T11:31:41.796Z,77.89
2022-11-09T11:32:47.103Z,78.19
2022-11-09T11:33:42.767Z,77.69
2022-11-09T11:34:59.048Z,75.96
2022-11-09T11:35:42.758Z,77.18
2022-11-09T11:36:41.736Z,76.98
2022-11-09T11:37:41.717Z,76.27
2022-11-09T11:38:41.712Z,75.66
2022-11-09T11:39:41.723Z,76.47
2022-11-09T11:40:41.706Z,76.47
2022-11-09T11:41:41.675Z,76.17
2022-11-09T11:42:41.734Z,75.66
2022-11-09T11:43:41.653Z,76.78
2022-11-09T11:44:41.634Z,75.25
2022-11-09T11:45:42.388Z,74.85
2022-11-09T11:46:41.662Z,76.06
2022-11-09T11:47:41.602Z,76.67
2022-11-09T11:48:41.621Z,75.76
2022-11-09T11:49:41.612Z,75.76
2022-11-09T11:50:41.547Z,75.56
2022-11-09T11:51:41.583Z,76.27
2022-11-09T11:52:41.518Z,76.67
2022-11-09T11:53:43.575Z,74.44
2022-11-09T11:54:41.514Z,75.86
2022-11-09T11:55:41.505Z,75.15
2022-11-09T11:56:41.504Z,74.95
2022-11-09T11:57:41.471Z,75.35
2022-11-09T11:58:41.447Z,74.44
2022-11-09T11:59:41.442Z,74.95
2022-11-09T12:00:41.435Z,75.76
2022-11-09T12:01:41.408Z,74.34
2022-11-09T12:02:41.486Z,74.85
2022-11-09T12:03:41.441Z,76.27
2022-11-09T12:04:41.371Z,76.78
2022-11-09T12:05:41.370Z,75.46
2022-11-09T12:06:44.118Z,75.56
2022-11-09T12:07:41.368Z,75.05
2022-11-09T12:08:41.364Z,74.95
2022-11-09T12:09:41.328Z,74.04
2022-11-09T12:10:41.301Z,74.71
2022-11-09T12:11:41.300Z,73.70
2022-11-09T12:12:41.279Z,74.81
2022-11-09T12:13:45.714Z,73.80
2022-11-09T12:14:42.274Z,74.51
2022-11-09T12:15:41.234Z,74.81
2022-11-09T12:16:41.226Z,73.19
2022-11-09T12:17:41.228Z,74.30
2022-11-09T12:18:41.236Z,72.17
2022-11-09T12:19:41.179Z,72.78
2022-11-09T12:20:41.191Z,72.38
2022-11-09T12:21:41.166Z,72.68
2022-11-09T12:22:41.161Z,73.70
2022-11-09T12:23:41.142Z,73.80
2022-11-09T12:24:41.252Z,73.19
2022-11-09T12:25:41.097Z,72.58
2022-11-09T12:26:41.110Z,72.99
2022-11-09T12:27:41.068Z,72.92
2022-11-09T12:28:41.076Z,73.22
2022-11-09T12:29:41.127Z,72.01
2022-11-09T12:30:41.114Z,73.63
2022-11-09T12:31:41.028Z,72.01
2022-11-09T12:32:41.017Z,73.43
2022-11-09T12:33:43.398Z,74.34
2022-11-09T12:34:40.999Z,73.63
2022-11-09T12:35:41.066Z,73.33
2022-11-09T12:36:40.967Z,73.12
2022-11-09T12:37:40.969Z,73.83
2022-11-09T12:38:40.933Z,74.74
2022-11-09T12:39:40.915Z,73.93
2022-11-09T12:40:40.916Z,73.93
2022-11-09T12:41:40.893Z,73.63
2022-11-09T12:42:40.873Z,74.24
2022-11-09T12:43:40.897Z,74.24
2022-11-09T12:44:40.844Z,73.33
2022-11-09T12:45:40.833Z,73.43
2022-11-09T12:46:40.836Z,73.12
2022-11-09T12:47:40.815Z,73.53
2022-11-09T12:48:40.815Z,72.11
2022-11-09T12:49:40.783Z,73.02
2022-11-09T12:50:40.801Z,71.70
2022-11-09T12:51:40.768Z,72.92
2022-11-09T12:52:40.770Z,71.00
2022-11-09T12:53:40.753Z,71.50